Time;durP1;ratioP1;P1;durP2;ratioP2;P2;SDS_P1;SDS_P2;PMS_P1;PMS_P2;Temp;Humidity;BMP_temperature;BMP_pressure;BME280_temperature;BME280_humidity;BME280_pressure;Samples;Min_cycle;Max_cycle;Signal;HPM_P1;HPM_P2
2022/03/29 00:00:20;;;;;;;11.02;8.07;;;;;;;;;;5019109;28;20203;-76
2022/03/29 00:02:48;;;;;;;8.57;6.95;;;;;;;;;;5021029;28;20211;-76
2022/03/29 00:05:15;;;;;;;9.52;7.68;;;;;;;;;;5028786;28;20234;-76
2022/03/29 00:07:42;;;;;;;10.55;7.45;;;;;;;;;;5033701;28;20195;-74
2022/03/29 00:10:09;;;;;;;9.52;6.35;;;;;;;;;;5026411;28;20269;-76
2022/03/29 00:12:36;;;;;;;12.15;8.27;;;;;;;;;;5033205;28;20203;-75
2022/03/29 00:15:06;;;;;;;12.20;7.63;;;;;;;;;;5031659;28;20612;-76
2022/03/29 00:17:33;;;;;;;9.15;6.88;;;;;;;;;;5029916;28;20201;-76
2022/03/29 00:20:00;;;;;;;10.15;7.60;;;;;;;;;;5021829;28;20199;-75
2022/03/29 00:22:27;;;;;;;11.90;8.25;;;;;;;;;;5027667;28;20215;-75
2022/03/29 00:24:55;;;;;;;9.18;6.68;;;;;;;;;;5029522;28;20216;-74
2022/03/29 00:27:22;;;;;;;12.60;8.18;;;;;;;;;;5024173;28;20212;-77
2022/03/29 00:29:49;;;;;;;11.00;8.00;;;;;;;;;;5029104;28;20221;-75
2022/03/29 00:32:17;;;;;;;9.13;8.23;;;;;;;;;;5026892;28;20562;-78
2022/03/29 00:34:45;;;;;;;9.35;7.05;;;;;;;;;;5028040;28;20214;-78
2022/03/29 00:37:12;;;;;;;10.82;8.35;;;;;;;;;;5027449;28;20200;-79
2022/03/29 00:39:39;;;;;;;12.18;9.63;;;;;;;;;;5033301;28;20204;-74
2022/03/29 00:42:06;;;;;;;8.10;7.22;;;;;;;;;;5022534;28;20265;-77
2022/03/29 00:44:34;;;;;;;11.77;8.73;;;;;;;;;;5028274;28;20188;-76
2022/03/29 00:47:02;;;;;;;9.75;8.32;;;;;;;;;;5022543;28;20201;-74
2022/03/29 00:49:30;;;;;;;9.75;8.57;;;;;;;;;;5029429;28;20735;-80
2022/03/29 00:51:59;;;;;;;10.80;8.27;;;;;;;;;;5022411;28;21435;-78
2022/03/29 00:54:26;;;;;;;11.25;9.55;;;;;;;;;;5016811;28;20192;-77
2022/03/29 00:56:54;;;;;;;10.52;8.27;;;;;;;;;;5030004;28;20195;-77
2022/03/29 00:59:21;;;;;;;12.93;9.00;;;;;;;;;;5027456;28;20195;-77
2022/03/29 01:01:48;;;;;;;13.02;9.88;;;;;;;;;;5027777;28;20191;-77
2022/03/29 01:04:15;;;;;;;12.57;10.27;;;;;;;;;;5027688;28;20203;-77
2022/03/29 01:06:45;;;;;;;11.63;9.10;;;;;;;;;;5029045;28;20222;-78
2022/03/29 01:09:12;;;;;;;13.20;8.45;;;;;;;;;;5028148;28;20195;-76
2022/03/29 01:11:40;;;;;;;8.23;7.38;;;;;;;;;;5024858;28;20227;-77
2022/03/29 01:14:07;;;;;;;12.27;9.07;;;;;;;;;;5023803;28;20254;-77
2022/03/29 01:19:21;;;;;;;12.23;9.45;;;;;;;;;;5023469;28;20301;-77
2022/03/29 01:21:53;;;;;;;10.73;8.07;;;;;;;;;;5022782;28;20285;-77
2022/03/29 01:24:20;;;;;;;13.10;10.50;;;;;;;;;;5018324;28;20216;-77
2022/03/29 01:26:47;;;;;;;13.00;8.57;;;;;;;;;;5016559;28;20208;-77
2022/03/29 01:29:14;;;;;;;11.95;9.45;;;;;;;;;;5022675;28;20242;-77
2022/03/29 01:31:42;;;;;;;11.50;9.15;;;;;;;;;;5024897;28;20223;-77
2022/03/29 01:34:09;;;;;;;12.10;9.43;;;;;;;;;;5027788;28;20203;-77
2022/03/29 01:36:36;;;;;;;14.43;8.80;;;;;;;;;;5027216;28;20192;-77
2022/03/29 01:39:05;;;;;;;11.35;8.95;;;;;;;;;;5024786;28;20269;-76
2022/03/29 01:41:32;;;;;;;10.23;8.57;;;;;;;;;;5016414;28;20289;-77
2022/03/29 01:43:59;;;;;;;16.13;10.88;;;;;;;;;;5022048;28;20200;-77
2022/03/29 01:46:26;;;;;;;10.55;8.30;;;;;;;;;;5023821;28;20198;-77
2022/03/29 01:48:54;;;;;;;10.63;9.15;;;;;;;;;;5028743;28;20242;-77
2022/03/29 01:51:21;;;;;;;12.38;9.90;;;;;;;;;;5028082;28;20755;-78
2022/03/29 01:53:53;;;;;;;11.90;10.60;;;;;;;;;;5019344;28;20249;-77
2022/03/29 01:56:21;;;;;;;13.00;10.18;;;;;;;;;;5024044;28;20203;-77
2022/03/29 01:58:49;;;;;;;11.40;10.05;;;;;;;;;;5029264;28;20212;-76
2022/03/29 02:01:16;;;;;;;11.63;9.30;;;;;;;;;;5026467;28;20210;-76
2022/03/29 02:03:43;;;;;;;16.67;12.05;;;;;;;;;;5032920;28;20273;-79
2022/03/29 02:06:11;;;;;;;12.70;9.90;;;;;;;;;;5029315;28;20214;-79
2022/03/29 02:08:38;;;;;;;13.95;10.80;;;;;;;;;;5029976;28;20204;-78
2022/03/29 02:11:05;;;;;;;16.25;11.32;;;;;;;;;;5028146;28;20629;-77
2022/03/29 02:13:33;;;;;;;13.35;10.95;;;;;;;;;;5031823;28;20246;-77
2022/03/29 02:16:00;;;;;;;13.15;10.65;;;;;;;;;;5026983;28;20206;-80
2022/03/29 02:18:27;;;;;;;13.55;11.38;;;;;;;;;;5027968;28;20249;-76
2022/03/29 02:20:55;;;;;;;13.55;10.95;;;;;;;;;;5021315;28;20270;-78
2022/03/29 02:23:22;;;;;;;15.48;11.98;;;;;;;;;;5015044;28;20643;-78
2022/03/29 02:25:49;;;;;;;14.00;11.88;;;;;;;;;;5025481;28;20203;-79
2022/03/29 02:28:16;;;;;;;12.23;11.05;;;;;;;;;;5027587;28;20219;-80
2022/03/29 02:30:46;;;;;;;12.93;11.52;;;;;;;;;;5030245;28;20265;-79
2022/03/29 02:33:13;;;;;;;16.50;12.90;;;;;;;;;;5022705;28;20249;-81
2022/03/29 02:35:40;;;;;;;13.57;11.68;;;;;;;;;;5025737;28;20199;-79
2022/03/29 02:38:07;;;;;;;28.33;12.85;;;;;;;;;;5031343;28;20204;-78
2022/03/29 02:40:34;;;;;;;15.50;12.50;;;;;;;;;;5023252;28;20199;-80
2022/03/29 02:43:01;;;;;;;13.98;12.30;;;;;;;;;;5026951;28;20196;-79
2022/03/29 02:45:28;;;;;;;14.10;11.27;;;;;;;;;;5019916;28;20219;-78
2022/03/29 02:47:58;;;;;;;15.80;13.45;;;;;;;;;;5023791;28;21005;-77
2022/03/29 02:50:25;;;;;;;13.48;11.30;;;;;;;;;;5024690;28;20239;-77
2022/03/29 02:52:53;;;;;;;16.60;12.02;;;;;;;;;;5028457;28;20195;-77
2022/03/29 02:55:21;;;;;;;15.05;12.40;;;;;;;;;;5020115;28;20207;-78
2022/03/29 02:57:49;;;;;;;15.18;11.90;;;;;;;;;;5026214;28;20211;-78
2022/03/29 03:00:16;;;;;;;13.95;12.30;;;;;;;;;;5027700;28;20199;-77
2022/03/29 03:02:43;;;;;;;15.02;12.30;;;;;;;;;;5026517;28;20204;-78
2022/03/29 03:05:12;;;;;;;13.13;11.70;;;;;;;;;;5021208;28;20200;-79
2022/03/29 03:07:39;;;;;;;13.18;11.40;;;;;;;;;;5028897;28;20689;-79
2022/03/29 03:10:07;;;;;;;14.77;11.43;;;;;;;;;;5027442;28;20198;-80
2022/03/29 03:12:37;;;;;;;12.93;11.15;;;;;;;;;;5027123;28;20227;-79
2022/03/29 03:15:04;;;;;;;13.25;11.85;;;;;;;;;;5034490;28;20593;-77
2022/03/29 03:17:32;;;;;;;14.77;13.20;;;;;;;;;;5029732;28;20602;-77
2022/03/29 03:19:59;;;;;;;13.00;11.57;;;;;;;;;;5023364;28;20203;-77
2022/03/29 03:22:27;;;;;;;13.07;11.68;;;;;;;;;;5021029;28;20192;-77
2022/03/29 03:24:55;;;;;;;13.05;9.90;;;;;;;;;;5019525;28;20219;-77
2022/03/29 03:27:22;;;;;;;12.35;11.07;;;;;;;;;;5022865;28;20207;-79
2022/03/29 03:29:49;;;;;;;13.50;12.10;;;;;;;;;;5025516;28;20196;-80
2022/03/29 03:32:16;;;;;;;13.70;11.93;;;;;;;;;;5024702;28;20224;-79
2022/03/29 03:34:43;;;;;;;13.43;12.00;;;;;;;;;;5020981;28;20683;-79
2022/03/29 03:37:10;;;;;;;13.43;12.00;;;;;;;;;;5017555;28;20192;-76
2022/03/29 03:39:39;;;;;;;13.82;11.32;;;;;;;;;;5012537;28;20229;-76
2022/03/29 03:42:06;;;;;;;15.20;12.40;;;;;;;;;;5013031;28;20211;-76
2022/03/29 03:44:33;;;;;;;13.48;10.80;;;;;;;;;;5017330;28;20203;-77
2022/03/29 03:47:02;;;;;;;13.43;12.02;;;;;;;;;;5017529;28;20191;-75
2022/03/29 03:49:29;;;;;;;13.55;10.82;;;;;;;;;;5019277;28;20215;-78
2022/03/29 03:51:56;;;;;;;13.93;11.98;;;;;;;;;;5000348;28;20219;-76
2022/03/29 03:54:23;;;;;;;14.45;12.75;;;;;;;;;;5016476;28;20195;-77
2022/03/29 03:56:51;;;;;;;14.35;12.43;;;;;;;;;;5017798;28;20646;-77
2022/03/29 03:59:18;;;;;;;14.52;10.93;;;;;;;;;;5028233;28;20199;-77
2022/03/29 04:01:45;;;;;;;15.00;12.40;;;;;;;;;;5017048;28;20274;-76
2022/03/29 04:04:12;;;;;;;12.32;11.02;;;;;;;;;;5022220;28;20300;-78
2022/03/29 04:06:40;;;;;;;13.30;11.90;;;;;;;;;;5023446;28;20203;-78
2022/03/29 04:09:07;;;;;;;14.13;12.63;;;;;;;;;;5022931;28;20192;-77
2022/03/29 04:11:34;;;;;;;14.32;12.80;;;;;;;;;;5021027;28;20219;-76
2022/03/29 04:14:02;;;;;;;21.15;14.35;;;;;;;;;;5026088;28;20196;-77
2022/03/29 04:16:30;;;;;;;15.75;14.07;;;;;;;;;;5018061;28;20203;-77
2022/03/29 04:18:57;;;;;;;15.15;13.55;;;;;;;;;;5029113;28;20203;-76
2022/03/29 04:21:24;;;;;;;15.85;13.10;;;;;;;;;;5022688;28;20207;-75
2022/03/29 04:23:51;;;;;;;15.75;13.80;;;;;;;;;;5022492;28;20216;-77
2022/03/29 04:26:18;;;;;;;18.20;14.73;;;;;;;;;;5023366;28;20693;-78
2022/03/29 04:28:45;;;;;;;15.10;13.52;;;;;;;;;;5023105;28;20202;-77
2022/03/29 04:31:14;;;;;;;16.80;14.18;;;;;;;;;;5018706;28;22585;-76
2022/03/29 04:33:41;;;;;;;15.85;13.20;;;;;;;;;;5025892;28;20195;-76
2022/03/29 04:36:09;;;;;;;17.95;12.90;;;;;;;;;;5026498;28;20286;-76
2022/03/29 04:38:36;;;;;;;18.33;15.27;;;;;;;;;;5023135;28;20207;-77
2022/03/29 04:41:04;;;;;;;17.52;14.00;;;;;;;;;;5017214;28;20199;-77
2022/03/29 04:43:31;;;;;;;18.13;13.82;;;;;;;;;;5024596;28;20851;-78
2022/03/29 04:45:58;;;;;;;19.30;15.70;;;;;;;;;;5011744;28;21657;-78
2022/03/29 04:48:27;;;;;;;26.55;14.48;;;;;;;;;;5023174;28;20200;-77
2022/03/29 04:50:54;;;;;;;17.98;14.00;;;;;;;;;;5023570;28;20195;-77
2022/03/29 04:53:21;;;;;;;19.65;16.00;;;;;;;;;;5028419;28;20196;-77
2022/03/29 04:55:50;;;;;;;21.05;17.17;;;;;;;;;;5020821;28;20613;-78
2022/03/29 04:58:17;;;;;;;18.98;15.80;;;;;;;;;;5032364;28;20638;-76
2022/03/29 05:00:44;;;;;;;20.05;16.13;;;;;;;;;;5025573;28;20204;-76
2022/03/29 05:03:11;;;;;;;28.98;17.42;;;;;;;;;;5023327;28;20192;-77
2022/03/29 05:05:40;;;;;;;17.63;14.88;;;;;;;;;;5023706;28;20200;-77
2022/03/29 05:08:07;;;;;;;18.67;15.35;;;;;;;;;;5028078;28;20195;-76
2022/03/29 05:10:34;;;;;;;19.55;15.35;;;;;;;;;;5023776;28;20195;-76
2022/03/29 05:13:01;;;;;;;20.50;16.17;;;;;;;;;;5029876;28;20273;-76
2022/03/29 05:15:28;;;;;;;20.77;16.85;;;;;;;;;;5029371;28;20200;-76
2022/03/29 05:17:55;;;;;;;20.20;17.88;;;;;;;;;;5032135;28;20207;-78
2022/03/29 05:20:23;;;;;;;20.63;16.80;;;;;;;;;;5024109;28;20196;-77
2022/03/29 05:22:52;;;;;;;20.50;16.08;;;;;;;;;;5029444;28;20198;-76
2022/03/29 05:25:21;;;;;;;20.95;17.02;;;;;;;;;;5016413;28;20232;-77
2022/03/29 05:27:49;;;;;;;23.58;16.73;;;;;;;;;;5031347;28;20257;-76
2022/03/29 05:30:16;;;;;;;23.27;16.55;;;;;;;;;;5024841;28;20246;-77
2022/03/29 05:32:44;;;;;;;22.20;14.98;;;;;;;;;;5024536;28;20582;-76
2022/03/29 05:35:11;;;;;;;21.35;18.13;;;;;;;;;;5026886;28;20207;-76
2022/03/29 05:37:39;;;;;;;24.08;17.98;;;;;;;;;;5028216;28;20199;-77
2022/03/29 05:40:08;;;;;;;21.40;17.33;;;;;;;;;;5023679;28;20200;-76
2022/03/29 05:42:38;;;;;;;22.98;18.70;;;;;;;;;;5024408;28;20196;-77
2022/03/29 05:45:05;;;;;;;24.58;17.33;;;;;;;;;;5023204;28;20212;-76
2022/03/29 05:50:17;;;;;;;20.23;16.42;;;;;;;;;;5025168;28;20210;-79
2022/03/29 05:52:44;;;;;;;22.77;18.30;;;;;;;;;;5024541;28;20306;-78
2022/03/29 05:55:13;;;;;;;24.30;17.98;;;;;;;;;;5024047;28;20249;-80
2022/03/29 05:57:40;;;;;;;27.50;18.92;;;;;;;;;;5021863;28;20195;-80
2022/03/29 06:00:10;;;;;;;21.75;17.73;;;;;;;;;;5027803;28;20199;-80
2022/03/29 06:02:37;;;;;;;27.67;20.63;;;;;;;;;;5022586;28;20231;-76
2022/03/29 06:05:04;;;;;;;30.55;22.80;;;;;;;;;;5028768;28;20589;-78
2022/03/29 06:07:31;;;;;;;28.45;19.00;;;;;;;;;;5030207;28;20207;-78
2022/03/29 06:09:58;;;;;;;31.70;20.83;;;;;;;;;;5024224;28;20327;-78
2022/03/29 06:12:27;;;;;;;26.10;20.23;;;;;;;;;;5028211;28;20220;-78
2022/03/29 06:14:54;;;;;;;30.48;21.00;;;;;;;;;;5032420;28;20204;-78
2022/03/29 06:17:23;;;;;;;27.80;20.75;;;;;;;;;;5018963;28;20567;-78
2022/03/29 06:19:50;;;;;;;26.60;20.80;;;;;;;;;;5030146;28;20195;-78
2022/03/29 06:22:17;;;;;;;29.67;19.75;;;;;;;;;;5028101;28;20199;-76
2022/03/29 06:24:44;;;;;;;27.67;20.67;;;;;;;;;;5023226;28;20223;-76
2022/03/29 06:27:11;;;;;;;37.25;23.55;;;;;;;;;;5019841;28;20746;-76
2022/03/29 06:29:39;;;;;;;37.42;24.10;;;;;;;;;;5022187;28;20206;-76
2022/03/29 06:32:07;;;;;;;38.08;26.23;;;;;;;;;;5020972;28;20215;-76
2022/03/29 06:34:34;;;;;;;35.60;24.40;;;;;;;;;;5023653;28;20188;-78
2022/03/29 06:37:01;;;;;;;41.00;26.05;;;;;;;;;;5025131;28;20191;-78
2022/03/29 06:39:30;;;;;;;32.15;21.65;;;;;;;;;;5026852;28;20195;-76
2022/03/29 06:41:57;;;;;;;31.92;23.35;;;;;;;;;;5026385;28;20196;-78
2022/03/29 06:44:24;;;;;;;34.10;23.13;;;;;;;;;;5028243;28;20202;-78
2022/03/29 06:46:52;;;;;;;37.38;25.13;;;;;;;;;;5023832;28;20203;-78
2022/03/29 06:49:19;;;;;;;35.38;23.00;;;;;;;;;;5022890;28;20208;-77
2022/03/29 06:51:47;;;;;;;33.30;24.40;;;;;;;;;;5022774;28;20219;-77
2022/03/29 06:54:15;;;;;;;32.78;24.90;;;;;;;;;;5027091;28;20720;-75
2022/03/29 06:56:42;;;;;;;33.95;22.92;;;;;;;;;;5019321;28;20204;-76
2022/03/29 06:59:10;;;;;;;34.55;23.38;;;;;;;;;;5029893;28;20623;-76
2022/03/29 07:01:37;;;;;;;33.20;23.40;;;;;;;;;;5018550;28;20204;-76
2022/03/29 07:04:07;;;;;;;40.72;25.55;;;;;;;;;;5027414;28;20191;-75
2022/03/29 07:06:34;;;;;;;40.38;26.20;;;;;;;;;;5025013;28;20199;-75
2022/03/29 07:11:46;;;;;;;35.95;24.20;;;;;;;;;;5020906;28;20227;-77
2022/03/29 07:14:14;;;;;;;35.75;24.20;;;;;;;;;;5020362;28;20198;-76
2022/03/29 07:16:42;;;;;;;34.40;24.90;;;;;;;;;;5023475;28;20192;-76
2022/03/29 07:19:11;;;;;;;32.60;23.33;;;;;;;;;;5024028;28;20223;-76
2022/03/29 07:21:39;;;;;;;33.78;25.17;;;;;;;;;;5026960;28;20298;-76
2022/03/29 07:24:06;;;;;;;31.50;23.25;;;;;;;;;;5027971;28;20643;-76
2022/03/29 07:26:33;;;;;;;31.65;23.88;;;;;;;;;;5020285;28;20261;-76
2022/03/29 07:29:00;;;;;;;31.95;22.50;;;;;;;;;;5021306;28;20196;-76
2022/03/29 07:31:27;;;;;;;35.85;24.13;;;;;;;;;;5023610;28;20195;-76
2022/03/29 07:33:54;;;;;;;34.53;22.20;;;;;;;;;;5023937;28;20211;-76
2022/03/29 07:36:22;;;;;;;34.83;26.70;;;;;;;;;;5024827;28;20253;-76
2022/03/29 07:38:50;;;;;;;31.35;21.95;;;;;;;;;;5025032;28;20204;-75
2022/03/29 07:41:17;;;;;;;30.60;23.08;;;;;;;;;;5021532;28;21568;-76
2022/03/29 07:43:44;;;;;;;30.95;21.42;;;;;;;;;;5020686;28;20208;-76
2022/03/29 07:46:11;;;;;;;30.50;22.58;;;;;;;;;;5021845;28;20196;-76
2022/03/29 07:48:38;;;;;;;33.55;22.45;;;;;;;;;;5019196;28;20253;-76
2022/03/29 07:51:05;;;;;;;35.17;24.15;;;;;;;;;;5024274;28;20282;-77
2022/03/29 07:53:34;;;;;;;30.00;21.55;;;;;;;;;;5026990;28;20709;-76
2022/03/29 07:56:01;;;;;;;33.22;22.23;;;;;;;;;;5013675;28;20209;-77
2022/03/29 07:58:28;;;;;;;34.47;22.02;;;;;;;;;;5019879;28;20206;-77
2022/03/29 08:00:55;;;;;;;32.95;21.30;;;;;;;;;;5018944;28;20206;-76
2022/03/29 08:03:22;;;;;;;31.17;21.48;;;;;;;;;;5020902;28;20199;-76
2022/03/29 08:05:50;;;;;;;25.70;19.42;;;;;;;;;;5024418;28;20210;-76
2022/03/29 08:08:17;;;;;;;26.17;20.13;;;;;;;;;;5027860;28;20199;-76
2022/03/29 08:10:46;;;;;;;27.30;19.40;;;;;;;;;;5023953;28;20543;-80
2022/03/29 08:13:14;;;;;;;33.38;21.55;;;;;;;;;;5023481;28;20216;-76
2022/03/29 08:15:41;;;;;;;28.58;21.23;;;;;;;;;;5024740;28;20195;-83
2022/03/29 08:18:09;;;;;;;30.52;21.40;;;;;;;;;;5026369;28;20196;-75
2022/03/29 08:20:36;;;;;;;30.10;19.75;;;;;;;;;;5025730;28;20203;-78
2022/03/29 08:23:03;;;;;;;25.80;20.27;;;;;;;;;;5024705;28;20203;-76
2022/03/29 08:25:31;;;;;;;29.98;19.60;;;;;;;;;;5024669;28;20235;-76
2022/03/29 08:28:00;;;;;;;28.05;20.48;;;;;;;;;;5031030;28;20624;-76
2022/03/29 08:30:28;;;;;;;25.80;18.23;;;;;;;;;;5022291;28;20227;-76
2022/03/29 08:32:57;;;;;;;27.90;20.80;;;;;;;;;;5025352;28;20234;-75
2022/03/29 08:35:24;;;;;;;31.95;21.10;;;;;;;;;;5027242;28;20196;-76
2022/03/29 08:37:52;;;;;;;33.25;20.02;;;;;;;;;;5028295;28;20665;-76
2022/03/29 08:40:22;;;;;;;26.38;19.23;;;;;;;;;;5024837;28;20196;-76
2022/03/29 08:42:54;;;;;;;31.23;21.02;;;;;;;;;;5025534;28;20202;-76
2022/03/29 08:45:26;;;;;;;30.98;19.77;;;;;;;;;;5021937;28;20949;-77
2022/03/29 08:47:54;;;;;;;27.30;18.63;;;;;;;;;;5021687;28;20196;-76
2022/03/29 08:50:21;;;;;;;33.40;20.88;;;;;;;;;;5023451;28;20250;-75
2022/03/29 08:52:48;;;;;;;29.98;19.15;;;;;;;;;;5022195;28;20227;-75
2022/03/29 08:55:15;;;;;;;36.13;20.33;;;;;;;;;;5020440;28;20196;-75
2022/03/29 08:57:42;;;;;;;28.08;19.55;;;;;;;;;;5020495;28;20196;-76
2022/03/29 09:00:10;;;;;;;33.97;20.83;;;;;;;;;;5023801;28;20204;-76
2022/03/29 09:02:39;;;;;;;28.23;18.50;;;;;;;;;;5024143;28;20195;-76
2022/03/29 09:05:12;;;;;;;30.02;21.70;;;;;;;;;;5024174;28;20204;-75
2022/03/29 09:07:47;;;;;;;28.60;20.30;;;;;;;;;;5023039;28;20203;-76
2022/03/29 09:10:14;;;;;;;38.35;22.23;;;;;;;;;;5024204;28;20195;-75
2022/03/29 09:12:42;;;;;;;26.00;19.55;;;;;;;;;;5024920;28;20841;-75
2022/03/29 09:15:09;;;;;;;30.42;21.05;;;;;;;;;;5023621;28;20629;-75
2022/03/29 09:17:38;;;;;;;29.65;20.95;;;;;;;;;;5024013;28;20742;-75
2022/03/29 09:20:08;;;;;;;27.88;21.10;;;;;;;;;;5020399;28;20312;-75
2022/03/29 09:22:37;;;;;;;30.98;21.38;;;;;;;;;;5021954;28;20203;-76
2022/03/29 09:25:05;;;;;;;32.33;20.20;;;;;;;;;;5018401;28;20633;-76
2022/03/29 09:27:32;;;;;;;31.50;21.50;;;;;;;;;;5022009;28;20199;-75
2022/03/29 09:30:09;;;;;;;34.05;21.92;;;;;;;;;;5020295;28;20204;-76
2022/03/29 09:32:51;;;;;;;32.15;20.20;;;;;;;;;;5023908;28;20222;-75
2022/03/29 09:35:19;;;;;;;29.63;20.17;;;;;;;;;;5022370;28;20661;-75
2022/03/29 09:37:46;;;;;;;35.78;22.25;;;;;;;;;;5026406;28;20654;-75
2022/03/29 09:40:14;;;;;;;30.35;20.30;;;;;;;;;;5022488;28;20191;-76
2022/03/29 09:42:41;;;;;;;30.65;21.27;;;;;;;;;;5019728;28;20291;-76
2022/03/29 09:45:09;;;;;;;25.02;19.80;;;;;;;;;;5025284;28;20294;-76
2022/03/29 09:47:37;;;;;;;28.42;21.20;;;;;;;;;;5019094;28;20860;-76
2022/03/29 09:50:06;;;;;;;30.15;19.65;;;;;;;;;;5026379;28;20203;-76
2022/03/29 09:52:37;;;;;;;29.15;19.50;;;;;;;;;;5024363;28;20285;-76
2022/03/29 09:55:09;;;;;;;27.17;20.90;;;;;;;;;;5024616;28;20295;-77
2022/03/29 09:57:37;;;;;;;30.45;20.95;;;;;;;;;;5026889;28;20200;-78
2022/03/29 10:00:04;;;;;;;28.05;18.55;;;;;;;;;;5031840;28;20219;-76
2022/03/29 10:02:40;;;;;;;27.83;21.65;;;;;;;;;;5025944;28;20191;-78
2022/03/29 10:05:08;;;;;;;33.90;22.08;;;;;;;;;;5017516;28;20647;-77
2022/03/29 10:07:39;;;;;;;25.98;19.33;;;;;;;;;;5022295;28;20558;-76
2022/03/29 10:10:09;;;;;;;34.28;21.95;;;;;;;;;;5019943;28;20208;-77
2022/03/29 10:12:36;;;;;;;33.97;22.45;;;;;;;;;;5022056;28;20195;-76
2022/03/29 10:15:03;;;;;;;31.63;21.08;;;;;;;;;;5022154;28;20214;-76
2022/03/29 10:17:31;;;;;;;30.30;22.83;;;;;;;;;;5020139;28;20206;-77
2022/03/29 10:19:59;;;;;;;25.90;20.00;;;;;;;;;;5021711;28;20196;-76
2022/03/29 10:22:27;;;;;;;32.50;22.02;;;;;;;;;;5019942;28;20198;-76
2022/03/29 10:24:55;;;;;;;28.10;20.35;;;;;;;;;;5020523;28;20310;-75
2022/03/29 10:27:23;;;;;;;34.15;22.95;;;;;;;;;;5021021;28;20298;-78
2022/03/29 10:29:50;;;;;;;26.88;19.73;;;;;;;;;;5026769;28;20195;-77
2022/03/29 10:32:29;;;;;;;30.48;20.73;;;;;;;;;;5021255;28;20613;-79
2022/03/29 10:35:03;;;;;;;29.33;21.65;;;;;;;;;;5018051;28;20223;-75
2022/03/29 10:37:33;;;;;;;34.03;22.90;;;;;;;;;;5013790;28;20308;-76
2022/03/29 10:40:03;;;;;;;28.73;20.13;;;;;;;;;;5018334;28;20195;-76
2022/03/29 10:42:32;;;;;;;26.75;19.88;;;;;;;;;;5021237;28;20706;-76
2022/03/29 10:45:00;;;;;;;31.13;21.63;;;;;;;;;;5020106;28;20203;-76
2022/03/29 10:47:28;;;;;;;31.02;22.45;;;;;;;;;;5019080;28;20571;-79
2022/03/29 10:49:58;;;;;;;30.50;21.98;;;;;;;;;;5018855;28;20248;-77
2022/03/29 10:52:29;;;;;;;26.65;20.00;;;;;;;;;;5028936;28;20191;-76
2022/03/29 10:55:15;;;;;;;28.38;20.50;;;;;;;;;;5018988;28;20223;-76
2022/03/29 10:58:03;;;;;;;29.45;19.42;;;;;;;;;;5018030;28;20785;-76
2022/03/29 11:00:31;;;;;;;24.70;16.55;;;;;;;;;;5020732;28;20282;-76
2022/03/29 11:03:15;;;;;;;27.65;19.00;;;;;;;;;;5017803;28;20254;-80
2022/03/29 11:06:01;;;;;;;20.70;16.25;;;;;;;;;;5025195;28;20207;-77
2022/03/29 11:08:30;;;;;;;23.25;17.08;;;;;;;;;;5024723;28;20723;-79
2022/03/29 11:10:58;;;;;;;21.27;17.15;;;;;;;;;;5019849;28;20573;-77
2022/03/29 11:13:27;;;;;;;23.25;17.40;;;;;;;;;;5018723;28;20581;-79
2022/03/29 11:15:57;;;;;;;24.65;17.55;;;;;;;;;;5019114;28;20202;-78
2022/03/29 11:18:48;;;;;;;23.90;17.73;;;;;;;;;;5016241;28;20659;-76
2022/03/29 11:21:45;;;;;;;23.38;18.50;;;;;;;;;;5017821;28;20208;-79
2022/03/29 11:24:16;;;;;;;22.50;15.88;;;;;;;;;;5020380;28;20227;-77
2022/03/29 11:26:58;;;;;;;18.52;14.93;;;;;;;;;;5017758;28;20215;-78
2022/03/29 11:29:26;;;;;;;22.05;16.27;;;;;;;;;;5019947;28;20231;-78
2022/03/29 11:31:56;;;;;;;20.08;15.70;;;;;;;;;;5017351;28;20227;-77
2022/03/29 11:34:23;;;;;;;22.40;17.27;;;;;;;;;;5018779;28;20219;-77
2022/03/29 11:36:50;;;;;;;19.50;15.25;;;;;;;;;;5018466;28;20269;-80
2022/03/29 11:39:28;;;;;;;18.55;14.57;;;;;;;;;;5019455;28;20207;-77
2022/03/29 11:41:56;;;;;;;21.58;15.63;;;;;;;;;;5020640;28;20232;-77
2022/03/29 11:44:24;;;;;;;20.88;14.82;;;;;;;;;;5025523;28;20298;-77
2022/03/29 11:46:53;;;;;;;22.23;15.23;;;;;;;;;;5019079;28;20533;-77
2022/03/29 11:49:21;;;;;;;18.35;14.27;;;;;;;;;;5019126;28;20200;-78
2022/03/29 11:52:02;;;;;;;21.90;17.05;;;;;;;;;;5019614;28;20214;-76
2022/03/29 11:54:29;;;;;;;19.17;16.60;;;;;;;;;;5014470;28;20312;-76
2022/03/29 11:56:56;;;;;;;26.40;16.17;;;;;;;;;;5016181;28;20253;-76
2022/03/29 11:59:23;;;;;;;24.48;14.55;;;;;;;;;;5025440;28;20199;-77
2022/03/29 12:01:50;;;;;;;22.30;16.40;;;;;;;;;;5023108;28;20254;-75
2022/03/29 12:04:19;;;;;;;24.20;17.45;;;;;;;;;;5020939;28;20215;-75
2022/03/29 12:06:49;;;;;;;19.98;15.68;;;;;;;;;;5023263;28;20195;-76
2022/03/29 12:09:22;;;;;;;20.55;15.77;;;;;;;;;;5018485;28;20207;-77
2022/03/29 12:11:49;;;;;;;18.45;15.77;;;;;;;;;;5025951;28;20208;-75
2022/03/29 12:14:17;;;;;;;20.70;16.05;;;;;;;;;;5025774;28;20226;-75
2022/03/29 12:16:45;;;;;;;19.85;15.60;;;;;;;;;;5018399;28;20208;-76
2022/03/29 12:19:12;;;;;;;17.08;13.82;;;;;;;;;;5020203;28;20208;-75
2022/03/29 12:21:42;;;;;;;17.52;13.65;;;;;;;;;;5029370;28;20191;-75
2022/03/29 12:24:11;;;;;;;17.45;13.77;;;;;;;;;;5025761;28;20555;-78
2022/03/29 12:26:40;;;;;;;18.80;14.10;;;;;;;;;;5021176;28;20207;-78
2022/03/29 12:29:07;;;;;;;19.00;13.40;;;;;;;;;;5029905;28;20196;-76
2022/03/29 12:31:36;;;;;;;16.55;13.35;;;;;;;;;;5030352;28;20192;-78
2022/03/29 12:34:03;;;;;;;25.55;19.17;;;;;;;;;;5027000;28;20214;-82
2022/03/29 12:36:30;;;;;;;27.60;21.30;;;;;;;;;;5031695;28;20223;-78
2022/03/29 12:39:03;;;;;;;26.88;19.48;;;;;;;;;;5027441;28;20646;-79
2022/03/29 12:41:35;;;;;;;21.23;16.73;;;;;;;;;;5024373;28;20210;-78
2022/03/29 12:44:03;;;;;;;20.10;17.70;;;;;;;;;;5031534;28;20574;-79
2022/03/29 12:46:31;;;;;;;25.45;19.10;;;;;;;;;;5026686;28;20199;-79
2022/03/29 12:48:58;;;;;;;21.40;16.45;;;;;;;;;;5023568;28;20646;-80
2022/03/29 12:51:27;;;;;;;24.75;17.95;;;;;;;;;;5027982;28;20208;-79
2022/03/29 12:53:58;;;;;;;21.23;17.27;;;;;;;;;;5029046;28;20216;-79
2022/03/29 12:56:30;;;;;;;21.95;17.50;;;;;;;;;;5028632;28;20196;-79
2022/03/29 12:59:04;;;;;;;28.85;18.65;;;;;;;;;;5033087;28;20195;-80
2022/03/29 13:01:32;;;;;;;29.40;20.45;;;;;;;;;;5028764;28;20199;-75
2022/03/29 13:04:10;;;;;;;28.90;20.83;;;;;;;;;;5029032;28;20226;-80
2022/03/29 13:06:41;;;;;;;25.40;19.58;;;;;;;;;;5028933;28;20201;-81
2022/03/29 13:09:08;;;;;;;28.48;20.08;;;;;;;;;;5029709;28;20191;-81
2022/03/29 13:11:36;;;;;;;24.80;18.90;;;;;;;;;;5032680;28;20291;-82
2022/03/29 13:14:04;;;;;;;22.20;17.95;;;;;;;;;;5033365;28;20281;-79
2022/03/29 13:16:32;;;;;;;25.15;18.15;;;;;;;;;;5031074;28;20191;-80
2022/03/29 13:18:59;;;;;;;25.77;19.27;;;;;;;;;;5029422;28;20211;-80
2022/03/29 13:21:28;;;;;;;22.83;18.25;;;;;;;;;;5032953;28;20192;-80
2022/03/29 13:23:55;;;;;;;23.48;17.45;;;;;;;;;;5028873;28;20219;-80
2022/03/29 13:26:23;;;;;;;22.58;16.77;;;;;;;;;;5033470;28;20693;-80
2022/03/29 13:28:52;;;;;;;23.15;17.75;;;;;;;;;;5034259;28;20670;-80
2022/03/29 13:31:20;;;;;;;22.50;17.65;;;;;;;;;;5032318;28;20282;-80
2022/03/29 13:33:47;;;;;;;23.13;16.20;;;;;;;;;;5030022;28;20226;-80
2022/03/29 13:36:16;;;;;;;23.50;17.55;;;;;;;;;;5030586;28;20447;-80
2022/03/29 13:38:43;;;;;;;20.02;16.63;;;;;;;;;;5027818;28;20199;-80
2022/03/29 13:41:11;;;;;;;22.42;16.33;;;;;;;;;;5031571;28;20200;-76
2022/03/29 13:43:38;;;;;;;20.38;17.35;;;;;;;;;;5032245;28;20196;-73
2022/03/29 13:46:08;;;;;;;19.63;15.50;;;;;;;;;;5026195;28;20206;-73
2022/03/29 13:48:35;;;;;;;17.83;14.25;;;;;;;;;;5028603;28;20204;-73
2022/03/29 13:51:03;;;;;;;20.25;16.50;;;;;;;;;;5029615;28;20330;-73
2022/03/29 13:53:31;;;;;;;21.15;15.63;;;;;;;;;;5028116;28;20249;-74
2022/03/29 13:55:59;;;;;;;20.15;15.75;;;;;;;;;;5024243;28;20210;-73
2022/03/29 13:58:27;;;;;;;21.20;15.93;;;;;;;;;;5026879;28;20206;-73
2022/03/29 14:00:55;;;;;;;20.05;15.95;;;;;;;;;;5020558;28;20957;-73
2022/03/29 14:03:23;;;;;;;25.33;14.57;;;;;;;;;;5024075;28;20625;-74
2022/03/29 14:05:50;;;;;;;19.30;16.10;;;;;;;;;;5024644;28;20219;-73
2022/03/29 14:08:19;;;;;;;17.10;14.63;;;;;;;;;;5026507;28;20203;-74
2022/03/29 14:10:46;;;;;;;19.60;16.10;;;;;;;;;;5025432;28;20670;-74
2022/03/29 14:13:13;;;;;;;23.40;15.57;;;;;;;;;;5027930;28;20586;-74
2022/03/29 14:15:41;;;;;;;18.98;15.75;;;;;;;;;;5028789;28;20254;-74
2022/03/29 14:18:09;;;;;;;18.63;14.68;;;;;;;;;;5024483;28;20282;-73
2022/03/29 14:20:39;;;;;;;20.60;14.35;;;;;;;;;;5023371;28;20291;-73
2022/03/29 14:23:07;;;;;;;17.75;14.27;;;;;;;;;;5033731;28;20285;-74
2022/03/29 14:25:36;;;;;;;18.40;14.00;;;;;;;;;;5020542;28;20640;-73
2022/03/29 14:28:06;;;;;;;18.30;14.77;;;;;;;;;;5029712;28;20630;-74
2022/03/29 14:30:33;;;;;;;18.05;13.27;;;;;;;;;;5027928;28;20195;-74
2022/03/29 14:33:00;;;;;;;16.45;13.68;;;;;;;;;;5026174;28;20207;-78